sensor_id;sensor_type;location;lat;lon;timestamp;temperature;humidity
24412;DHT22;12544;46.760;15.942;2023-04-03T00:00:15;5.30;99.90
24412;DHT22;12544;46.760;15.942;2023-04-03T00:05:44;5.30;99.90
24412;DHT22;12544;46.760;15.942;2023-04-03T00:08:10;5.20;99.90
24412;DHT22;12544;46.760;15.942;2023-04-03T00:13:38;5.20;99.90
24412;DHT22;12544;46.760;15.942;2023-04-03T00:16:04;5.20;99.90
24412;DHT22;12544;46.760;15.942;2023-04-03T00:18:30;5.20;99.90
24412;DHT22;12544;46.760;15.942;2023-04-03T00:23:59;5.20;99.90
24412;DHT22;12544;46.760;15.942;2023-04-03T00:29:28;5.10;99.90
24412;DHT22;12544;46.760;15.942;2023-04-03T00:31:53;5.10;99.90
24412;DHT22;12544;46.760;15.942;2023-04-03T00:34:19;5.10;99.90
24412;DHT22;12544;46.760;15.942;2023-04-03T00:36:45;5.10;99.90
24412;DHT22;12544;46.760;15.942;2023-04-03T00:39:10;5.10;99.90
24412;DHT22;12544;46.760;15.942;2023-04-03T00:41:36;5.00;99.90
24412;DHT22;12544;46.760;15.942;2023-04-03T00:44:17;5.10;99.90
24412;DHT22;12544;46.760;15.942;2023-04-03T00:49:46;5.10;99.90
24412;DHT22;12544;46.760;15.942;2023-04-03T00:52:13;5.10;99.90
24412;DHT22;12544;46.760;15.942;2023-04-03T00:54:41;5.00;99.90
24412;DHT22;12544;46.760;15.942;2023-04-03T00:57:07;5.00;99.90
24412;DHT22;12544;46.760;15.942;2023-04-03T01:02:36;5.10;99.90
24412;DHT22;12544;46.760;15.942;2023-04-03T01:05:02;5.10;99.90
24412;DHT22;12544;46.760;15.942;2023-04-03T01:07:29;5.10;99.90
24412;DHT22;12544;46.760;15.942;2023-04-03T01:09:56;5.10;99.90
24412;DHT22;12544;46.760;15.942;2023-04-03T01:15:25;5.10;99.90
24412;DHT22;12544;46.760;15.942;2023-04-03T01:17:53;5.20;99.90
24412;DHT22;12544;46.760;15.942;2023-04-03T01:25:59;5.10;99.90
24412;DHT22;12544;46.760;15.942;2023-04-03T01:28:27;5.10;99.90
24412;DHT22;12544;46.760;15.942;2023-04-03T01:31:08;5.30;99.90
24412;DHT22;12544;46.760;15.942;2023-04-03T01:33:36;5.30;99.90
24412;DHT22;12544;46.760;15.942;2023-04-03T01:36:02;5.30;99.90
24412;DHT22;12544;46.760;15.942;2023-04-03T01:38:28;5.30;99.90
24412;DHT22;12544;46.760;15.942;2023-04-03T01:40:54;5.30;99.90
24412;DHT22;12544;46.760;15.942;2023-04-03T01:43:20;5.30;99.90
24412;DHT22;12544;46.760;15.942;2023-04-03T01:45:45;5.40;99.90
24412;DHT22;12544;46.760;15.942;2023-04-03T01:48:12;5.40;99.90
24412;DHT22;12544;46.760;15.942;2023-04-03T01:53:41;5.50;99.90
24412;DHT22;12544;46.760;15.942;2023-04-03T01:56:06;5.50;99.90
24412;DHT22;12544;46.760;15.942;2023-04-03T01:58:32;5.50;99.90
24412;DHT22;12544;46.760;15.942;2023-04-03T02:00:57;5.50;99.90
24412;DHT22;12544;46.760;15.942;2023-04-03T02:03:23;5.50;99.90
24412;DHT22;12544;46.760;15.942;2023-04-03T02:05:49;5.50;99.90
24412;DHT22;12544;46.760;15.942;2023-04-03T02:08:15;5.60;99.90
24412;DHT22;12544;46.760;15.942;2023-04-03T02:10:43;5.60;99.90
24412;DHT22;12544;46.760;15.942;2023-04-03T02:13:09;5.50;99.90
24412;DHT22;12544;46.760;15.942;2023-04-03T02:15:37;5.50;99.90
24412;DHT22;12544;46.760;15.942;2023-04-03T02:18:02;5.50;99.90
24412;DHT22;12544;46.760;15.942;2023-04-03T02:20:28;5.60;99.90
24412;DHT22;12544;46.760;15.942;2023-04-03T02:22:53;5.40;99.90
24412;DHT22;12544;46.760;15.942;2023-04-03T02:25:19;5.50;99.90
24412;DHT22;12544;46.760;15.942;2023-04-03T02:27:45;5.50;99.90
24412;DHT22;12544;46.760;15.942;2023-04-03T02:30:11;5.50;99.90
24412;DHT22;12544;46.760;15.942;2023-04-03T02:32:36;5.40;99.90
24412;DHT22;12544;46.760;15.942;2023-04-03T02:35:02;5.40;99.90
24412;DHT22;12544;46.760;15.942;2023-04-03T02:37:28;5.40;99.90
24412;DHT22;12544;46.760;15.942;2023-04-03T02:39:53;5.40;99.90
24412;DHT22;12544;46.760;15.942;2023-04-03T02:42:19;5.50;99.90
24412;DHT22;12544;46.760;15.942;2023-04-03T02:44:44;5.50;99.90
24412;DHT22;12544;46.760;15.942;2023-04-03T02:50:13;5.60;99.90
24412;DHT22;12544;46.760;15.942;2023-04-03T02:52:38;5.50;99.90
24412;DHT22;12544;46.760;15.942;2023-04-03T02:55:04;5.40;99.90
24412;DHT22;12544;46.760;15.942;2023-04-03T02:57:30;5.50;99.90
24412;DHT22;12544;46.760;15.942;2023-04-03T02:59:55;5.50;99.90
24412;DHT22;12544;46.760;15.942;2023-04-03T03:02:21;5.60;99.90
24412;DHT22;12544;46.760;15.942;2023-04-03T03:04:46;5.70;99.90
24412;DHT22;12544;46.760;15.942;2023-04-03T03:07:12;5.70;99.90
24412;DHT22;12544;46.760;15.942;2023-04-03T03:09:37;5.70;99.90
24412;DHT22;12544;46.760;15.942;2023-04-03T03:12:03;5.60;99.90
24412;DHT22;12544;46.760;15.942;2023-04-03T03:14:29;5.60;99.90
24412;DHT22;12544;46.760;15.942;2023-04-03T03:16:54;5.70;99.90
24412;DHT22;12544;46.760;15.942;2023-04-03T03:22:23;5.70;99.90
24412;DHT22;12544;46.760;15.942;2023-04-03T03:24:48;5.60;99.90
24412;DHT22;12544;46.760;15.942;2023-04-03T03:27:14;5.50;99.90
24412;DHT22;12544;46.760;15.942;2023-04-03T03:29:41;5.50;99.90
24412;DHT22;12544;46.760;15.942;2023-04-03T03:32:07;5.60;99.90
24412;DHT22;12544;46.760;15.942;2023-04-03T03:34:32;5.60;99.90
24412;DHT22;12544;46.760;15.942;2023-04-03T03:36:58;5.60;99.90
24412;DHT22;12544;46.760;15.942;2023-04-03T03:39:23;5.60;99.90
24412;DHT22;12544;46.760;15.942;2023-04-03T03:41:49;5.60;99.90
24412;DHT22;12544;46.760;15.942;2023-04-03T03:44:15;5.60;99.90
24412;DHT22;12544;46.760;15.942;2023-04-03T03:46:40;5.50;99.90
24412;DHT22;12544;46.760;15.942;2023-04-03T03:49:06;5.50;99.90
24412;DHT22;12544;46.760;15.942;2023-04-03T03:51:31;5.50;99.90
24412;DHT22;12544;46.760;15.942;2023-04-03T03:53:57;5.50;99.90
24412;DHT22;12544;46.760;15.942;2023-04-03T03:56:22;5.50;99.90
24412;DHT22;12544;46.760;15.942;2023-04-03T03:58:48;5.40;99.90
24412;DHT22;12544;46.760;15.942;2023-04-03T04:01:14;5.50;99.90
24412;DHT22;12544;46.760;15.942;2023-04-03T04:03:42;5.60;99.90
24412;DHT22;12544;46.760;15.942;2023-04-03T04:06:07;5.60;99.90
24412;DHT22;12544;46.760;15.942;2023-04-03T04:11:35;5.70;99.90
24412;DHT22;12544;46.760;15.942;2023-04-03T04:14:01;5.60;99.90
24412;DHT22;12544;46.760;15.942;2023-04-03T04:16:26;5.60;99.90
24412;DHT22;12544;46.760;15.942;2023-04-03T04:18:52;5.70;99.90
24412;DHT22;12544;46.760;15.942;2023-04-03T04:21:17;5.70;99.90
24412;DHT22;12544;46.760;15.942;2023-04-03T04:23:43;5.60;99.90
24412;DHT22;12544;46.760;15.942;2023-04-03T04:29:06;5.60;99.90
24412;DHT22;12544;46.760;15.942;2023-04-03T04:31:31;5.70;99.90
24412;DHT22;12544;46.760;15.942;2023-04-03T04:33:57;5.80;99.90
24412;DHT22;12544;46.760;15.942;2023-04-03T04:36:22;5.80;99.90
24412;DHT22;12544;46.760;15.942;2023-04-03T04:38:48;5.80;99.90
24412;DHT22;12544;46.760;15.942;2023-04-03T04:41:14;5.70;99.90
24412;DHT22;12544;46.760;15.942;2023-04-03T04:43:40;5.70;99.90
24412;DHT22;12544;46.760;15.942;2023-04-03T04:46:06;5.70;99.90
24412;DHT22;12544;46.760;15.942;2023-04-03T04:48:32;5.60;99.90
24412;DHT22;12544;46.760;15.942;2023-04-03T04:50:58;5.60;99.90
24412;DHT22;12544;46.760;15.942;2023-04-03T04:53:23;5.70;99.90
24412;DHT22;12544;46.760;15.942;2023-04-03T04:55:49;5.60;99.90
24412;DHT22;12544;46.760;15.942;2023-04-03T04:58:14;5.70;99.90
24412;DHT22;12544;46.760;15.942;2023-04-03T05:00:40;5.70;99.90
24412;DHT22;12544;46.760;15.942;2023-04-03T05:03:05;5.80;99.90
24412;DHT22;12544;46.760;15.942;2023-04-03T05:05:31;5.90;99.90
24412;DHT22;12544;46.760;15.942;2023-04-03T05:07:57;5.90;99.90
24412;DHT22;12544;46.760;15.942;2023-04-03T05:10:22;5.90;99.90
24412;DHT22;12544;46.760;15.942;2023-04-03T05:12:48;5.80;99.90
24412;DHT22;12544;46.760;15.942;2023-04-03T05:15:13;5.80;99.90
24412;DHT22;12544;46.760;15.942;2023-04-03T05:20:25;5.80;99.90
24412;DHT22;12544;46.760;15.942;2023-04-03T05:22:50;5.80;99.90
24412;DHT22;12544;46.760;15.942;2023-04-03T05:25:16;5.90;99.90
24412;DHT22;12544;46.760;15.942;2023-04-03T05:27:41;5.90;99.90
24412;DHT22;12544;46.760;15.942;2023-04-03T05:30:07;6.00;99.90
24412;DHT22;12544;46.760;15.942;2023-04-03T05:32:33;6.00;99.90
24412;DHT22;12544;46.760;15.942;2023-04-03T05:34:58;6.00;99.90
24412;DHT22;12544;46.760;15.942;2023-04-03T05:37:24;6.00;99.90
24412;DHT22;12544;46.760;15.942;2023-04-03T05:39:49;6.10;99.90
24412;DHT22;12544;46.760;15.942;2023-04-03T05:42:15;6.20;99.70
24412;DHT22;12544;46.760;15.942;2023-04-03T05:44:41;6.20;99.80
24412;DHT22;12544;46.760;15.942;2023-04-03T05:47:06;6.30;99.20
24412;DHT22;12544;46.760;15.942;2023-04-03T05:49:32;6.20;99.90
24412;DHT22;12544;46.760;15.942;2023-04-03T05:51:57;6.30;99.00
24412;DHT22;12544;46.760;15.942;2023-04-03T05:54:24;6.40;99.80
24412;DHT22;12544;46.760;15.942;2023-04-03T05:56:50;6.40;98.60
24412;DHT22;12544;46.760;15.942;2023-04-03T05:59:16;6.50;99.50
24412;DHT22;12544;46.760;15.942;2023-04-03T06:01:42;6.50;99.50
24412;DHT22;12544;46.760;15.942;2023-04-03T06:04:08;6.60;99.40
24412;DHT22;12544;46.760;15.942;2023-04-03T06:09:11;6.70;98.40
24412;DHT22;12544;46.760;15.942;2023-04-03T06:11:37;6.60;99.20
24412;DHT22;12544;46.760;15.942;2023-04-03T06:14:02;6.70;99.20
24412;DHT22;12544;46.760;15.942;2023-04-03T06:16:28;6.90;99.70
24412;DHT22;12544;46.760;15.942;2023-04-03T06:18:54;7.00;99.00
24412;DHT22;12544;46.760;15.942;2023-04-03T06:24:23;7.20;99.20
24412;DHT22;12544;46.760;15.942;2023-04-03T06:26:50;7.30;99.00
24412;DHT22;12544;46.760;15.942;2023-04-03T06:29:16;7.20;98.50
24412;DHT22;12544;46.760;15.942;2023-04-03T06:31:42;7.20;98.80
24412;DHT22;12544;46.760;15.942;2023-04-03T06:34:08;7.10;98.80
24412;DHT22;12544;46.760;15.942;2023-04-03T06:39:36;7.30;99.40
24412;DHT22;12544;46.760;15.942;2023-04-03T06:42:02;7.30;99.10
24412;DHT22;12544;46.760;15.942;2023-04-03T06:44:28;7.40;99.90
24412;DHT22;12544;46.760;15.942;2023-04-03T06:46:53;7.40;98.70
24412;DHT22;12544;46.760;15.942;2023-04-03T06:49:19;7.30;99.30
24412;DHT22;12544;46.760;15.942;2023-04-03T06:51:45;7.40;98.50
24412;DHT22;12544;46.760;15.942;2023-04-03T06:54:10;7.50;98.60
24412;DHT22;12544;46.760;15.942;2023-04-03T06:56:36;7.60;99.30
24412;DHT22;12544;46.760;15.942;2023-04-03T06:59:01;7.80;99.60
24412;DHT22;12544;46.760;15.942;2023-04-03T07:01:28;7.80;99.60
24412;DHT22;12544;46.760;15.942;2023-04-03T07:03:55;7.90;99.70
24412;DHT22;12544;46.760;15.942;2023-04-03T07:06:21;8.10;99.20
24412;DHT22;12544;46.760;15.942;2023-04-03T07:08:47;8.30;98.10
24412;DHT22;12544;46.760;15.942;2023-04-03T07:11:14;8.40;98.90
24412;DHT22;12544;46.760;15.942;2023-04-03T07:13:40;8.40;98.80
24412;DHT22;12544;46.760;15.942;2023-04-03T07:16:06;8.40;97.80
24412;DHT22;12544;46.760;15.942;2023-04-03T07:21:35;8.40;97.90
24412;DHT22;12544;46.760;15.942;2023-04-03T07:24:01;8.30;97.90
24412;DHT22;12544;46.760;15.942;2023-04-03T07:26:27;8.50;97.60
24412;DHT22;12544;46.760;15.942;2023-04-03T07:28:52;8.60;98.50
24412;DHT22;12544;46.760;15.942;2023-04-03T07:31:18;8.80;97.00
24412;DHT22;12544;46.760;15.942;2023-04-03T07:33:44;8.70;96.10
24412;DHT22;12544;46.760;15.942;2023-04-03T07:36:10;8.60;97.90
24412;DHT22;12544;46.760;15.942;2023-04-03T07:38:39;8.60;95.80
24412;DHT22;12544;46.760;15.942;2023-04-03T07:41:04;8.50;96.50
24412;DHT22;12544;46.760;15.942;2023-04-03T07:43:31;8.40;96.00
24412;DHT22;12544;46.760;15.942;2023-04-03T07:45:56;8.30;96.60
24412;DHT22;12544;46.760;15.942;2023-04-03T07:48:23;8.30;96.60
24412;DHT22;12544;46.760;15.942;2023-04-03T07:50:49;8.40;97.50
24412;DHT22;12544;46.760;15.942;2023-04-03T07:56:18;8.50;96.80
24412;DHT22;12544;46.760;15.942;2023-04-03T07:58:45;8.50;96.40
24412;DHT22;12544;46.760;15.942;2023-04-03T08:01:11;8.40;96.50
24412;DHT22;12544;46.760;15.942;2023-04-03T08:03:37;8.30;96.30
24412;DHT22;12544;46.760;15.942;2023-04-03T08:06:03;8.20;97.00
24412;DHT22;12544;46.760;15.942;2023-04-03T08:08:29;8.20;96.50
24412;DHT22;12544;46.760;15.942;2023-04-03T08:13:58;8.10;95.90
24412;DHT22;12544;46.760;15.942;2023-04-03T08:16:24;8.20;96.30
24412;DHT22;12544;46.760;15.942;2023-04-03T08:18:53;8.20;96.60
24412;DHT22;12544;46.760;15.942;2023-04-03T08:21:20;8.30;97.00
24412;DHT22;12544;46.760;15.942;2023-04-03T08:23:47;8.30;96.90
24412;DHT22;12544;46.760;15.942;2023-04-03T08:26:14;8.50;95.90
24412;DHT22;12544;46.760;15.942;2023-04-03T08:28:39;8.60;96.50
24412;DHT22;12544;46.760;15.942;2023-04-03T08:31:06;8.50;94.80
24412;DHT22;12544;46.760;15.942;2023-04-03T08:33:32;8.40;95.50
24412;DHT22;12544;46.760;15.942;2023-04-03T08:35:58;8.40;96.10
24412;DHT22;12544;46.760;15.942;2023-04-03T08:41:37;8.20;94.70
24412;DHT22;12544;46.760;15.942;2023-04-03T08:52:14;8.50;95.40
24412;DHT22;12544;46.760;15.942;2023-04-03T08:57:39;8.90;94.10
24412;DHT22;12544;46.760;15.942;2023-04-03T09:00:16;9.00;94.30
24412;DHT22;12544;46.760;15.942;2023-04-03T09:08:30;8.70;94.20
24412;DHT22;12544;46.760;15.942;2023-04-03T09:10:59;8.70;93.40
24412;DHT22;12544;46.760;15.942;2023-04-03T09:13:33;8.60;93.60
24412;DHT22;12544;46.760;15.942;2023-04-03T09:16:02;8.50;92.50
24412;DHT22;12544;46.760;15.942;2023-04-03T09:18:30;8.50;93.50
24412;DHT22;12544;46.760;15.942;2023-04-03T09:21:01;8.50;93.10
24412;DHT22;12544;46.760;15.942;2023-04-03T09:29:10;8.30;92.40
24412;DHT22;12544;46.760;15.942;2023-04-03T09:31:39;8.20;92.20
24412;DHT22;12544;46.760;15.942;2023-04-03T09:34:06;8.10;93.50
24412;DHT22;12544;46.760;15.942;2023-04-03T09:39:51;8.30;94.10
24412;DHT22;12544;46.760;15.942;2023-04-03T09:42:19;8.50;94.20
24412;DHT22;12544;46.760;15.942;2023-04-03T09:44:53;8.60;93.90
24412;DHT22;12544;46.760;15.942;2023-04-03T09:47:25;8.80;94.20
24412;DHT22;12544;46.760;15.942;2023-04-03T09:49:56;8.70;93.80
24412;DHT22;12544;46.760;15.942;2023-04-03T09:52:34;8.70;93.70
24412;DHT22;12544;46.760;15.942;2023-04-03T09:55:06;8.80;93.10
24412;DHT22;12544;46.760;15.942;2023-04-03T09:57:32;8.50;92.10
24412;DHT22;12544;46.760;15.942;2023-04-03T09:59:58;8.30;92.20
24412;DHT22;12544;46.760;15.942;2023-04-03T10:04:56;8.20;93.30
24412;DHT22;12544;46.760;15.942;2023-04-03T10:07:55;8.30;94.30
24412;DHT22;12544;46.760;15.942;2023-04-03T10:12:39;8.60;92.40
24412;DHT22;12544;46.760;15.942;2023-04-03T10:15:10;8.50;92.00
24412;DHT22;12544;46.760;15.942;2023-04-03T10:30:48;8.50;94.00
24412;DHT22;12544;46.760;15.942;2023-04-03T10:42:15;9.30;92.00
24412;DHT22;12544;46.760;15.942;2023-04-03T10:47:07;9.10;91.50
24412;DHT22;12544;46.760;15.942;2023-04-03T10:53:03;9.40;92.80
24412;DHT22;12544;46.760;15.942;2023-04-03T10:57:51;9.70;90.10
24412;DHT22;12544;46.760;15.942;2023-04-03T11:00:19;9.60;90.20
24412;DHT22;12544;46.760;15.942;2023-04-03T11:02:59;9.60;90.30
24412;DHT22;12544;46.760;15.942;2023-04-03T11:08:03;9.80;90.70
24412;DHT22;12544;46.760;15.942;2023-04-03T11:10:42;9.90;89.80
24412;DHT22;12544;46.760;15.942;2023-04-03T11:13:14;10.10;90.60
24412;DHT22;12544;46.760;15.942;2023-04-03T11:18:56;10.40;88.60
24412;DHT22;12544;46.760;15.942;2023-04-03T11:21:47;10.40;90.00
24412;DHT22;12544;46.760;15.942;2023-04-03T11:24:20;10.50;87.60
24412;DHT22;12544;46.760;15.942;2023-04-03T11:26:47;10.40;83.50
24412;DHT22;12544;46.760;15.942;2023-04-03T11:29:15;9.90;84.00
24412;DHT22;12544;46.760;15.942;2023-04-03T11:34:37;10.10;85.00
24412;DHT22;12544;46.760;15.942;2023-04-03T11:37:10;10.30;86.30
24412;DHT22;12544;46.760;15.942;2023-04-03T11:39:37;10.50;88.70
24412;DHT22;12544;46.760;15.942;2023-04-03T11:44:38;10.20;84.70
24412;DHT22;12544;46.760;15.942;2023-04-03T11:47:04;9.90;81.20
24412;DHT22;12544;46.760;15.942;2023-04-03T11:58:02;9.70;82.30
24412;DHT22;12544;46.760;15.942;2023-04-03T12:14:15;10.40;79.40
24412;DHT22;12544;46.760;15.942;2023-04-03T12:16:42;10.40;78.80
24412;DHT22;12544;46.760;15.942;2023-04-03T12:32:32;11.00;79.10
24412;DHT22;12544;46.760;15.942;2023-04-03T12:53:41;9.80;83.20
24412;DHT22;12544;46.760;15.942;2023-04-03T12:56:24;10.20;80.80
24412;DHT22;12544;46.760;15.942;2023-04-03T12:58:51;10.40;79.80
24412;DHT22;12544;46.760;15.942;2023-04-03T13:01:17;10.50;84.40
24412;DHT22;12544;46.760;15.942;2023-04-03T13:03:51;10.30;79.80
24412;DHT22;12544;46.760;15.942;2023-04-03T13:06:27;10.00;80.30
24412;DHT22;12544;46.760;15.942;2023-04-03T13:08:57;9.90;81.30
24412;DHT22;12544;46.760;15.942;2023-04-03T13:11:24;9.90;81.90
24412;DHT22;12544;46.760;15.942;2023-04-03T13:13:57;9.80;82.10
24412;DHT22;12544;46.760;15.942;2023-04-03T13:16:23;9.80;81.50
24412;DHT22;12544;46.760;15.942;2023-04-03T13:18:51;9.80;84.40
24412;DHT22;12544;46.760;15.942;2023-04-03T13:21:18;9.70;81.00
24412;DHT22;12544;46.760;15.942;2023-04-03T13:23:45;9.90;84.20
24412;DHT22;12544;46.760;15.942;2023-04-03T13:26:12;10.20;83.50
24412;DHT22;12544;46.760;15.942;2023-04-03T13:28:41;10.30;83.90
24412;DHT22;12544;46.760;15.942;2023-04-03T13:33:50;10.00;77.80
24412;DHT22;12544;46.760;15.942;2023-04-03T13:36:17;10.00;79.30
24412;DHT22;12544;46.760;15.942;2023-04-03T13:38:43;10.10;82.70
24412;DHT22;12544;46.760;15.942;2023-04-03T13:43:53;10.40;79.30
24412;DHT22;12544;46.760;15.942;2023-04-03T13:48:45;10.50;77.70
24412;DHT22;12544;46.760;15.942;2023-04-03T13:56:17;10.60;75.50
24412;DHT22;12544;46.760;15.942;2023-04-03T13:58:52;10.70;74.40
24412;DHT22;12544;46.760;15.942;2023-04-03T14:01:19;10.70;73.80
24412;DHT22;12544;46.760;15.942;2023-04-03T14:03:51;10.70;75.70
24412;DHT22;12544;46.760;15.942;2023-04-03T14:06:17;10.60;73.40
24412;DHT22;12544;46.760;15.942;2023-04-03T14:08:43;10.40;73.50
24412;DHT22;12544;46.760;15.942;2023-04-03T14:14:16;10.20;74.10
24412;DHT22;12544;46.760;15.942;2023-04-03T14:16:42;10.00;75.60
24412;DHT22;12544;46.760;15.942;2023-04-03T14:19:22;10.00;75.60
24412;DHT22;12544;46.760;15.942;2023-04-03T14:21:49;9.90;73.80
24412;DHT22;12544;46.760;15.942;2023-04-03T14:24:16;9.60;74.80
24412;DHT22;12544;46.760;15.942;2023-04-03T14:26:42;9.50;74.80
24412;DHT22;12544;46.760;15.942;2023-04-03T14:29:09;9.50;74.80
24412;DHT22;12544;46.760;15.942;2023-04-03T14:31:35;9.40;75.00
24412;DHT22;12544;46.760;15.942;2023-04-03T14:34:01;9.40;75.00
24412;DHT22;12544;46.760;15.942;2023-04-03T14:36:27;9.50;75.00
24412;DHT22;12544;46.760;15.942;2023-04-03T14:38:54;9.60;75.00
24412;DHT22;12544;46.760;15.942;2023-04-03T14:41:21;9.60;73.90
24412;DHT22;12544;46.760;15.942;2023-04-03T14:43:47;9.40;72.20
24412;DHT22;12544;46.760;15.942;2023-04-03T14:46:17;9.30;75.20
24412;DHT22;12544;46.760;15.942;2023-04-03T14:48:43;9.40;73.30
24412;DHT22;12544;46.760;15.942;2023-04-03T14:51:12;9.30;76.60
24412;DHT22;12544;46.760;15.942;2023-04-03T14:53:38;9.40;76.30
24412;DHT22;12544;46.760;15.942;2023-04-03T14:56:37;9.40;73.80
24412;DHT22;12544;46.760;15.942;2023-04-03T14:58:57;9.40;73.80
24412;DHT22;12544;46.760;15.942;2023-04-03T15:01:23;9.10;72.90
24412;DHT22;12544;46.760;15.942;2023-04-03T15:03:49;9.00;74.10
24412;DHT22;12544;46.760;15.942;2023-04-03T15:06:14;9.00;76.30
24412;DHT22;12544;46.760;15.942;2023-04-03T15:08:40;8.80;75.30
24412;DHT22;12544;46.760;15.942;2023-04-03T15:14:09;8.80;74.50
24412;DHT22;12544;46.760;15.942;2023-04-03T15:16:35;8.90;75.70
24412;DHT22;12544;46.760;15.942;2023-04-03T15:19:01;9.00;75.60
24412;DHT22;12544;46.760;15.942;2023-04-03T15:21:26;9.10;72.60
24412;DHT22;12544;46.760;15.942;2023-04-03T15:23:52;9.00;72.90
24412;DHT22;12544;46.760;15.942;2023-04-03T15:26:17;8.90;72.50
24412;DHT22;12544;46.760;15.942;2023-04-03T15:28:43;8.80;74.20
24412;DHT22;12544;46.760;15.942;2023-04-03T15:34:12;8.60;74.50
24412;DHT22;12544;46.760;15.942;2023-04-03T15:36:37;8.40;75.80
24412;DHT22;12544;46.760;15.942;2023-04-03T15:39:03;8.40;75.50
24412;DHT22;12544;46.760;15.942;2023-04-03T15:41:29;8.50;77.70
24412;DHT22;12544;46.760;15.942;2023-04-03T15:43:54;8.50;75.40
24412;DHT22;12544;46.760;15.942;2023-04-03T15:46:20;8.60;74.90
24412;DHT22;12544;46.760;15.942;2023-04-03T15:48:45;8.40;74.00
24412;DHT22;12544;46.760;15.942;2023-04-03T15:51:11;8.40;74.20
24412;DHT22;12544;46.760;15.942;2023-04-03T15:53:36;8.20;73.60
24412;DHT22;12544;46.760;15.942;2023-04-03T15:56:02;8.10;74.50
24412;DHT22;12544;46.760;15.942;2023-04-03T15:58:29;8.10;75.40
24412;DHT22;12544;46.760;15.942;2023-04-03T16:00:55;8.20;74.80
24412;DHT22;12544;46.760;15.942;2023-04-03T16:03:21;8.30;74.80
24412;DHT22;12544;46.760;15.942;2023-04-03T16:05:47;8.30;74.10
24412;DHT22;12544;46.760;15.942;2023-04-03T16:08:13;8.20;74.70
24412;DHT22;12544;46.760;15.942;2023-04-03T16:10:39;8.30;75.20
24412;DHT22;12544;46.760;15.942;2023-04-03T16:13:05;8.20;73.80
24412;DHT22;12544;46.760;15.942;2023-04-03T16:15:31;8.10;74.10
24412;DHT22;12544;46.760;15.942;2023-04-03T16:17:59;8.00;73.70
24412;DHT22;12544;46.760;15.942;2023-04-03T16:20:25;7.90;73.70
24412;DHT22;12544;46.760;15.942;2023-04-03T16:25:37;7.90;75.70
24412;DHT22;12544;46.760;15.942;2023-04-03T16:28:02;7.70;72.80
24412;DHT22;12544;46.760;15.942;2023-04-03T16:30:28;7.70;74.90
24412;DHT22;12544;46.760;15.942;2023-04-03T16:35:57;7.70;73.80
24412;DHT22;12544;46.760;15.942;2023-04-03T16:38:22;7.40;71.20
24412;DHT22;12544;46.760;15.942;2023-04-03T16:40:48;7.20;71.90
24412;DHT22;12544;46.760;15.942;2023-04-03T16:43:14;7.10;72.50
24412;DHT22;12544;46.760;15.942;2023-04-03T16:45:40;7.00;73.50
24412;DHT22;12544;46.760;15.942;2023-04-03T16:48:06;7.00;73.30
24412;DHT22;12544;46.760;15.942;2023-04-03T16:50:31;6.90;74.60
24412;DHT22;12544;46.760;15.942;2023-04-03T16:52:57;6.90;74.10
24412;DHT22;12544;46.760;15.942;2023-04-03T16:55:22;6.60;74.40
24412;DHT22;12544;46.760;15.942;2023-04-03T16:57:48;6.40;73.70
24412;DHT22;12544;46.760;15.942;2023-04-03T17:00:14;6.20;73.40
24412;DHT22;12544;46.760;15.942;2023-04-03T17:02:40;6.10;74.20
24412;DHT22;12544;46.760;15.942;2023-04-03T17:05:06;6.00;73.90
24412;DHT22;12544;46.760;15.942;2023-04-03T17:07:32;5.90;73.90
24412;DHT22;12544;46.760;15.942;2023-04-03T17:09:57;5.80;73.60
24412;DHT22;12544;46.760;15.942;2023-04-03T17:12:23;5.70;74.50
24412;DHT22;12544;46.760;15.942;2023-04-03T17:14:49;5.60;74.00
24412;DHT22;12544;46.760;15.942;2023-04-03T17:17:15;5.60;74.60
24412;DHT22;12544;46.760;15.942;2023-04-03T17:19:41;5.60;74.50
24412;DHT22;12544;46.760;15.942;2023-04-03T17:22:07;5.50;74.50
24412;DHT22;12544;46.760;15.942;2023-04-03T17:24:34;5.40;76.40
24412;DHT22;12544;46.760;15.942;2023-04-03T17:27:00;5.40;76.20
24412;DHT22;12544;46.760;15.942;2023-04-03T17:29:25;5.30;76.70
24412;DHT22;12544;46.760;15.942;2023-04-03T17:31:51;5.20;75.60
24412;DHT22;12544;46.760;15.942;2023-04-03T17:34:16;5.20;76.00
24412;DHT22;12544;46.760;15.942;2023-04-03T17:36:42;5.20;75.60
24412;DHT22;12544;46.760;15.942;2023-04-03T17:39:07;5.10;76.10
24412;DHT22;12544;46.760;15.942;2023-04-03T17:41:33;5.00;76.40
24412;DHT22;12544;46.760;15.942;2023-04-03T17:43:58;5.10;76.10
24412;DHT22;12544;46.760;15.942;2023-04-03T17:46:25;5.00;75.50
24412;DHT22;12544;46.760;15.942;2023-04-03T17:48:51;5.00;76.10
24412;DHT22;12544;46.760;15.942;2023-04-03T17:51:18;5.00;75.90
24412;DHT22;12544;46.760;15.942;2023-04-03T17:53:45;5.00;75.80
24412;DHT22;12544;46.760;15.942;2023-04-03T17:56:12;5.00;76.20
24412;DHT22;12544;46.760;15.942;2023-04-03T17:58:38;4.90;75.90
24412;DHT22;12544;46.760;15.942;2023-04-03T18:04:06;4.80;76.80
24412;DHT22;12544;46.760;15.942;2023-04-03T18:06:33;4.70;77.10
24412;DHT22;12544;46.760;15.942;2023-04-03T18:09:11;4.70;77.60
24412;DHT22;12544;46.760;15.942;2023-04-03T18:11:39;4.80;76.90
24412;DHT22;12544;46.760;15.942;2023-04-03T18:14:05;4.80;78.10
24412;DHT22;12544;46.760;15.942;2023-04-03T18:16:31;4.80;77.80
24412;DHT22;12544;46.760;15.942;2023-04-03T18:18:57;4.70;78.40
24412;DHT22;12544;46.760;15.942;2023-04-03T18:21:23;4.70;77.60
24412;DHT22;12544;46.760;15.942;2023-04-03T18:26:56;4.60;78.70
24412;DHT22;12544;46.760;15.942;2023-04-03T18:29:22;4.50;78.10
24412;DHT22;12544;46.760;15.942;2023-04-03T18:31:49;4.50;78.80
24412;DHT22;12544;46.760;15.942;2023-04-03T18:34:16;4.50;79.60
24412;DHT22;12544;46.760;15.942;2023-04-03T18:36:41;4.60;79.20
24412;DHT22;12544;46.760;15.942;2023-04-03T18:39:07;4.50;78.20
24412;DHT22;12544;46.760;15.942;2023-04-03T18:41:32;4.40;79.10
24412;DHT22;12544;46.760;15.942;2023-04-03T18:43:58;4.40;79.50
24412;DHT22;12544;46.760;15.942;2023-04-03T18:49:29;4.40;78.00
24412;DHT22;12544;46.760;15.942;2023-04-03T18:51:55;4.20;78.20
24412;DHT22;12544;46.760;15.942;2023-04-03T18:54:21;4.10;77.90
24412;DHT22;12544;46.760;15.942;2023-04-03T18:56:47;4.20;76.80
24412;DHT22;12544;46.760;15.942;2023-04-03T18:59:13;4.10;77.60
24412;DHT22;12544;46.760;15.942;2023-04-03T19:01:38;4.10;78.30
24412;DHT22;12544;46.760;15.942;2023-04-03T19:04:04;4.10;78.20
24412;DHT22;12544;46.760;15.942;2023-04-03T19:06:31;4.10;78.30
24412;DHT22;12544;46.760;15.942;2023-04-03T19:08:57;4.00;78.10
24412;DHT22;12544;46.760;15.942;2023-04-03T19:11:22;4.00;78.00
24412;DHT22;12544;46.760;15.942;2023-04-03T19:13:48;4.00;78.00
24412;DHT22;12544;46.760;15.942;2023-04-03T19:19:16;4.00;78.20